Time;durP1;ratioP1;P1;durP2;ratioP2;P2;SDS_P1;SDS_P2;PMS_P1;PMS_P2;Temp;Humidity;BMP_temperature;BMP_pressure;BME280_temperature;BME280_humidity;BME280_pressure;Samples;Min_cycle;Max_cycle;Signal;HPM_P1;HPM_P2
2023/01/19 00:01:13;;;;;;;18.87;10.67;;;;;;;;;;5034992;28;20182;-77
2023/01/19 00:03:40;;;;;;;17.03;9.47;;;;;;;;;;5030123;28;20685;-77
2023/01/19 00:06:06;;;;;;;15.10;8.93;;;;;;;;;;5040147;28;20174;-78
2023/01/19 00:08:34;;;;;;;14.40;9.27;;;;;;;;;;5046476;28;20261;-78
2023/01/19 00:11:00;;;;;;;16.40;10.63;;;;;;;;;;5046867;28;20232;-77
2023/01/19 00:13:27;;;;;;;15.33;9.63;;;;;;;;;;5047252;28;20205;-77
2023/01/19 00:15:53;;;;;;;15.33;9.17;;;;;;;;;;5037297;28;20246;-77
2023/01/19 00:18:19;;;;;;;15.40;10.50;;;;;;;;;;5041536;28;20174;-77
2023/01/19 00:20:45;;;;;;;16.57;9.90;;;;;;;;;;5039649;28;20175;-77
2023/01/19 00:23:12;;;;;;;16.63;10.40;;;;;;;;;;5040627;28;20210;-77
2023/01/19 00:25:41;;;;;;;20.60;11.67;;;;;;;;;;5038958;28;20174;-79
2023/01/19 00:28:11;;;;;;;17.80;10.70;;;;;;;;;;5013212;28;20190;-77
2023/01/19 00:30:37;;;;;;;23.70;13.70;;;;;;;;;;5023387;28;20183;-79
2023/01/19 00:33:04;;;;;;;22.77;12.50;;;;;;;;;;5038325;28;20229;-77
2023/01/19 00:35:30;;;;;;;21.20;12.57;;;;;;;;;;5044491;28;20190;-77
2023/01/19 00:37:57;;;;;;;19.13;11.77;;;;;;;;;;5042046;28;20652;-77
2023/01/19 00:40:23;;;;;;;20.00;11.90;;;;;;;;;;5044633;28;20194;-78
2023/01/19 00:42:49;;;;;;;19.40;10.57;;;;;;;;;;5046237;28;20236;-77
2023/01/19 00:45:20;;;;;;;15.20;9.93;;;;;;;;;;5036059;28;20489;-78
2023/01/19 00:47:47;;;;;;;14.83;9.37;;;;;;;;;;5035143;28;20175;-77
2023/01/19 00:50:18;;;;;;;17.73;10.80;;;;;;;;;;5040373;28;20186;-77
2023/01/19 00:52:44;;;;;;;14.83;10.03;;;;;;;;;;5045098;28;20586;-77
2023/01/19 00:55:11;;;;;;;17.90;11.13;;;;;;;;;;5041327;28;20234;-77
2023/01/19 00:57:38;;;;;;;18.37;10.83;;;;;;;;;;5038927;28;20189;-76
2023/01/19 01:00:06;;;;;;;18.50;10.23;;;;;;;;;;5045127;28;20612;-77
2023/01/19 01:02:33;;;;;;;23.97;13.03;;;;;;;;;;5038425;28;20210;-78
2023/01/19 01:05:01;;;;;;;23.27;12.80;;;;;;;;;;5020974;28;20525;-76
2023/01/19 01:07:28;;;;;;;17.20;10.37;;;;;;;;;;5046073;28;20517;-77
2023/01/19 01:09:55;;;;;;;20.60;12.13;;;;;;;;;;5040948;28;20178;-77
2023/01/19 01:12:25;;;;;;;18.27;10.73;;;;;;;;;;5042569;28;20198;-76
2023/01/19 01:14:54;;;;;;;16.17;11.40;;;;;;;;;;5044688;28;20256;-77
2023/01/19 01:17:23;;;;;;;16.03;10.77;;;;;;;;;;5024470;28;20195;-77
2023/01/19 01:19:50;;;;;;;17.23;11.27;;;;;;;;;;5041059;28;20263;-79
2023/01/19 01:22:17;;;;;;;18.80;11.67;;;;;;;;;;5045050;28;20269;-78
2023/01/19 01:24:43;;;;;;;27.40;14.70;;;;;;;;;;5048182;28;20228;-78
2023/01/19 01:27:10;;;;;;;20.83;12.70;;;;;;;;;;5045259;28;20178;-77
2023/01/19 01:29:38;;;;;;;26.37;13.23;;;;;;;;;;5037267;28;20178;-77
2023/01/19 01:32:04;;;;;;;26.43;14.60;;;;;;;;;;5035431;28;20190;-76
2023/01/19 01:34:30;;;;;;;17.60;11.47;;;;;;;;;;5045392;28;20235;-77
2023/01/19 01:36:56;;;;;;;30.10;16.30;;;;;;;;;;5058415;28;20197;-76
2023/01/19 01:39:23;;;;;;;26.83;14.60;;;;;;;;;;5039900;28;20202;-76
2023/01/19 01:41:49;;;;;;;23.93;13.37;;;;;;;;;;5039100;28;20222;-77
2023/01/19 01:44:36;;;;;;;21.20;13.80;;;;;;;;;;5039761;28;20205;-76
2023/01/19 01:47:03;;;;;;;20.73;13.00;;;;;;;;;;5042567;28;21094;-78
2023/01/19 01:49:30;;;;;;;17.47;12.10;;;;;;;;;;5025466;28;20189;-77
2023/01/19 01:51:56;;;;;;;20.93;12.90;;;;;;;;;;5043650;28;20281;-78
2023/01/19 01:54:32;;;;;;;33.80;18.20;;;;;;;;;;5045015;28;20188;-78
2023/01/19 01:57:03;;;;;;;23.13;13.90;;;;;;;;;;5035950;28;20189;-78
2023/01/19 01:59:37;;;;;;;21.07;13.20;;;;;;;;;;5046395;28;20186;-76
2023/01/19 02:05:02;;;;;;;21.10;13.50;;;;;;;;;;5038026;28;20177;-77
2023/01/19 02:13:21;;;;;;;23.70;15.90;;;;;;;;;;5042137;28;20205;-76
2023/01/19 02:15:52;;;;;;;27.40;15.73;;;;;;;;;;5038557;28;20186;-77
2023/01/19 02:18:19;;;;;;;24.07;14.23;;;;;;;;;;5041383;28;20760;-77
2023/01/19 02:21:06;;;;;;;20.03;12.80;;;;;;;;;;5032413;28;20189;-77
2023/01/19 02:23:41;;;;;;;23.37;14.40;;;;;;;;;;5025738;28;20226;-76
2023/01/19 02:26:13;;;;;;;20.73;13.40;;;;;;;;;;5042885;28;20671;-77
2023/01/19 02:28:44;;;;;;;28.07;15.63;;;;;;;;;;5020686;28;20186;-78
2023/01/19 02:31:11;;;;;;;22.13;13.83;;;;;;;;;;5042913;28;20268;-76
2023/01/19 02:33:37;;;;;;;23.83;14.90;;;;;;;;;;5045259;28;20209;-78
2023/01/19 02:36:07;;;;;;;21.10;14.17;;;;;;;;;;5046534;28;20182;-77
2023/01/19 02:38:33;;;;;;;23.03;14.17;;;;;;;;;;5040208;28;20185;-76
2023/01/19 02:41:01;;;;;;;22.77;15.10;;;;;;;;;;5045913;28;20177;-77
2023/01/19 02:43:28;;;;;;;23.10;14.50;;;;;;;;;;5045509;28;20209;-77
2023/01/19 02:45:55;;;;;;;22.23;14.93;;;;;;;;;;5038601;28;20260;-76
2023/01/19 02:48:21;;;;;;;21.40;14.43;;;;;;;;;;5039221;28;20196;-76
2023/01/19 02:51:03;;;;;;;24.13;15.17;;;;;;;;;;5041205;28;21630;-77
2023/01/19 02:53:32;;;;;;;21.97;13.80;;;;;;;;;;5040837;28;20296;-76
2023/01/19 02:56:18;;;;;;;24.13;15.53;;;;;;;;;;5041238;28;20186;-78
2023/01/19 02:58:49;;;;;;;19.63;13.97;;;;;;;;;;5060828;28;20199;-77
2023/01/19 03:01:29;;;;;;;24.90;14.70;;;;;;;;;;5038696;28;20186;-76
2023/01/19 03:04:06;;;;;;;21.87;14.47;;;;;;;;;;5041094;28;21966;-76
2023/01/19 03:06:38;;;;;;;20.03;13.67;;;;;;;;;;5038901;28;20188;-77
2023/01/19 03:09:12;;;;;;;20.20;13.63;;;;;;;;;;5042647;28;20200;-78
2023/01/19 03:11:41;;;;;;;27.87;16.37;;;;;;;;;;5040270;28;20190;-78
2023/01/19 03:14:09;;;;;;;22.67;14.37;;;;;;;;;;5038875;28;20253;-78
2023/01/19 03:16:37;;;;;;;20.93;14.93;;;;;;;;;;5043041;28;20173;-76
2023/01/19 03:19:07;;;;;;;23.43;14.47;;;;;;;;;;5040289;28;20198;-77
2023/01/19 03:21:35;;;;;;;21.63;15.00;;;;;;;;;;5041759;28;20214;-78
2023/01/19 03:24:02;;;;;;;21.00;13.67;;;;;;;;;;5036292;28;20716;-77
2023/01/19 03:26:30;;;;;;;20.27;13.80;;;;;;;;;;5032471;28;20170;-76
2023/01/19 03:28:58;;;;;;;21.77;14.67;;;;;;;;;;5036379;28;20197;-76
2023/01/19 03:31:25;;;;;;;22.57;14.10;;;;;;;;;;5043619;28;20708;-78
2023/01/19 03:33:56;;;;;;;21.87;14.67;;;;;;;;;;5038132;28;20335;-77
2023/01/19 03:36:46;;;;;;;21.03;14.20;;;;;;;;;;5033657;28;20178;-77
2023/01/19 03:39:14;;;;;;;21.13;14.33;;;;;;;;;;5029831;28;20255;-77
2023/01/19 03:41:40;;;;;;;22.43;14.97;;;;;;;;;;5041206;28;20201;-77
2023/01/19 03:44:07;;;;;;;21.17;14.40;;;;;;;;;;5033197;28;20210;-77
2023/01/19 03:46:33;;;;;;;22.47;14.10;;;;;;;;;;5041397;28;20182;-78
2023/01/19 03:49:00;;;;;;;22.80;15.40;;;;;;;;;;5044670;28;20185;-77
2023/01/19 03:51:26;;;;;;;21.60;15.07;;;;;;;;;;5036684;28;20275;-78
2023/01/19 03:53:52;;;;;;;24.17;14.40;;;;;;;;;;5034153;28;20202;-77
2023/01/19 03:56:20;;;;;;;21.90;14.43;;;;;;;;;;5041383;28;20177;-77
2023/01/19 03:58:46;;;;;;;23.60;16.07;;;;;;;;;;5035357;28;20838;-77
2023/01/19 04:01:13;;;;;;;22.03;14.27;;;;;;;;;;5043029;28;20189;-78
2023/01/19 04:03:40;;;;;;;20.27;14.17;;;;;;;;;;5039569;28;20636;-77
2023/01/19 04:06:06;;;;;;;20.03;13.83;;;;;;;;;;5035228;28;20674;-75
2023/01/19 04:08:32;;;;;;;21.37;14.77;;;;;;;;;;5043423;28;20181;-76
2023/01/19 04:10:59;;;;;;;21.50;14.63;;;;;;;;;;5038454;28;20679;-77
2023/01/19 04:13:27;;;;;;;23.50;14.80;;;;;;;;;;5046814;28;20209;-76
2023/01/19 04:15:53;;;;;;;20.23;13.80;;;;;;;;;;5039152;28;20528;-75
2023/01/19 04:18:19;;;;;;;21.17;13.73;;;;;;;;;;5029702;28;20204;-75
2023/01/19 04:20:46;;;;;;;23.43;13.80;;;;;;;;;;5026047;28;20346;-75
2023/01/19 04:23:12;;;;;;;41.13;18.87;;;;;;;;;;5041430;28;20700;-75
2023/01/19 04:25:39;;;;;;;37.73;19.37;;;;;;;;;;5041766;28;20232;-75
2023/01/19 04:28:05;;;;;;;35.90;19.33;;;;;;;;;;5038297;28;20264;-75
2023/01/19 04:30:31;;;;;;;24.97;15.47;;;;;;;;;;5046426;28;20185;-75
2023/01/19 04:32:58;;;;;;;27.30;15.70;;;;;;;;;;5047589;28;20213;-75
2023/01/19 04:35:24;;;;;;;20.87;14.10;;;;;;;;;;5044757;28;20591;-75
2023/01/19 04:37:50;;;;;;;25.70;14.83;;;;;;;;;;5039592;28;20182;-75
2023/01/19 04:40:16;;;;;;;22.13;13.87;;;;;;;;;;5037730;28;20238;-75
2023/01/19 04:42:44;;;;;;;23.47;14.93;;;;;;;;;;5045905;28;20680;-75
2023/01/19 04:45:11;;;;;;;19.50;13.03;;;;;;;;;;5045040;28;20184;-76
2023/01/19 04:47:37;;;;;;;22.80;14.70;;;;;;;;;;5042343;28;20181;-76
2023/01/19 04:50:04;;;;;;;20.30;13.67;;;;;;;;;;5041398;28;20206;-75
2023/01/19 04:52:34;;;;;;;19.47;13.63;;;;;;;;;;5053978;28;20677;-75
2023/01/19 04:55:01;;;;;;;22.73;14.27;;;;;;;;;;5044299;28;20188;-75
2023/01/19 04:57:28;;;;;;;29.70;17.17;;;;;;;;;;5041939;28;20271;-75
2023/01/19 04:59:55;;;;;;;19.57;14.23;;;;;;;;;;5021851;28;20185;-75
2023/01/19 05:02:21;;;;;;;19.23;13.67;;;;;;;;;;5040653;28;20304;-75
2023/01/19 05:04:47;;;;;;;19.83;13.93;;;;;;;;;;5041062;28;20269;-75
2023/01/19 05:07:13;;;;;;;22.88;14.93;;;;;;;;;;5041013;28;20915;-75
2023/01/19 05:09:40;;;;;;;23.37;15.63;;;;;;;;;;5037686;28;20174;-75
2023/01/19 05:12:06;;;;;;;20.37;14.03;;;;;;;;;;5048310;28;20190;-76
2023/01/19 05:14:32;;;;;;;22.37;14.37;;;;;;;;;;5043561;28;20183;-75
2023/01/19 05:16:59;;;;;;;20.17;13.07;;;;;;;;;;5036545;28;20195;-75
2023/01/19 05:19:25;;;;;;;22.37;15.00;;;;;;;;;;5043254;28;20190;-76
2023/01/19 05:21:51;;;;;;;19.57;13.93;;;;;;;;;;5036674;28;20267;-76
2023/01/19 05:24:18;;;;;;;19.77;13.73;;;;;;;;;;5041145;28;20202;-76
2023/01/19 05:26:44;;;;;;;21.67;15.68;;;;;;;;;;5044055;28;20458;-76
2023/01/19 05:29:11;;;;;;;21.10;14.33;;;;;;;;;;5019667;28;20753;-75
2023/01/19 05:31:37;;;;;;;22.23;14.70;;;;;;;;;;5036617;28;20248;-76
2023/01/19 05:34:04;;;;;;;21.57;14.47;;;;;;;;;;5043081;28;20253;-75
2023/01/19 05:36:30;;;;;;;20.17;14.47;;;;;;;;;;5038674;28;20198;-75
2023/01/19 05:38:56;;;;;;;22.97;15.33;;;;;;;;;;5044127;28;20606;-77
2023/01/19 05:41:22;;;;;;;22.40;15.03;;;;;;;;;;5043905;28;20197;-76
2023/01/19 05:43:48;;;;;;;21.20;15.17;;;;;;;;;;5042180;28;20249;-76
2023/01/19 05:46:14;;;;;;;22.43;14.87;;;;;;;;;;5042411;28;20181;-76
2023/01/19 05:48:41;;;;;;;22.50;17.10;;;;;;;;;;5041135;28;20520;-75
2023/01/19 05:51:07;;;;;;;23.35;17.63;;;;;;;;;;5036927;28;20431;-75
2023/01/19 05:53:34;;;;;;;22.67;17.07;;;;;;;;;;5043732;28;20700;-75
2023/01/19 05:56:04;;;;;;;25.53;16.83;;;;;;;;;;5009684;28;20190;-75
2023/01/19 05:58:30;;;;;;;22.97;16.27;;;;;;;;;;5046730;28;20269;-76
2023/01/19 06:00:57;;;;;;;25.27;15.80;;;;;;;;;;5042502;28;20182;-75
2023/01/19 06:03:23;;;;;;;23.27;16.00;;;;;;;;;;5041101;28;20270;-75
2023/01/19 06:05:49;;;;;;;22.43;15.57;;;;;;;;;;5044439;28;20250;-74
2023/01/19 06:08:15;;;;;;;21.57;15.27;;;;;;;;;;5056835;28;20189;-74
2023/01/19 06:10:41;;;;;;;24.27;15.70;;;;;;;;;;5047634;28;20176;-76
2023/01/19 06:13:09;;;;;;;22.50;15.60;;;;;;;;;;5047160;28;20576;-79
2023/01/19 06:15:36;;;;;;;22.57;15.00;;;;;;;;;;5043329;28;20209;-76
2023/01/19 06:18:02;;;;;;;22.15;15.65;;;;;;;;;;5042817;28;20919;-74
2023/01/19 06:20:28;;;;;;;23.60;15.13;;;;;;;;;;5042569;28;20274;-74
2023/01/19 06:22:57;;;;;;;21.23;14.80;;;;;;;;;;5024809;28;20246;-73
2023/01/19 06:25:24;;;;;;;19.60;13.80;;;;;;;;;;5034856;28;20289;-73
2023/01/19 06:27:51;;;;;;;20.73;14.40;;;;;;;;;;5039998;28;20683;-71
2023/01/19 06:30:17;;;;;;;22.63;14.53;;;;;;;;;;5038751;28;20182;-71
2023/01/19 06:32:43;;;;;;;21.60;15.63;;;;;;;;;;5039156;28;20439;-72
2023/01/19 06:35:09;;;;;;;20.92;16.38;;;;;;;;;;5032748;28;20429;-72
2023/01/19 06:37:36;;;;;;;21.20;15.77;;;;;;;;;;5034365;28;20181;-76
2023/01/19 06:40:02;;;;;;;25.23;15.20;;;;;;;;;;5040117;28;20204;-75
2023/01/19 06:42:28;;;;;;;21.83;15.77;;;;;;;;;;5040834;28;20205;-75
2023/01/19 06:44:54;;;;;;;24.93;15.57;;;;;;;;;;5040771;28;21065;-76
2023/01/19 06:47:20;;;;;;;21.70;15.77;;;;;;;;;;5037360;28;20536;-78
2023/01/19 06:49:47;;;;;;;24.07;15.63;;;;;;;;;;5035852;28;20668;-76
2023/01/19 06:52:16;;;;;;;21.85;17.38;;;;;;;;;;5020859;28;20423;-77
2023/01/19 06:54:43;;;;;;;28.40;16.60;;;;;;;;;;5037344;28;20261;-75
2023/01/19 06:57:12;;;;;;;21.73;15.83;;;;;;;;;;5033079;28;20186;-75
2023/01/19 06:59:39;;;;;;;22.00;15.30;;;;;;;;;;5045561;28;20674;-75
2023/01/19 07:02:05;;;;;;;23.90;16.77;;;;;;;;;;5038155;28;20225;-76
2023/01/19 07:04:36;;;;;;;23.40;15.80;;;;;;;;;;5033902;28;20260;-78
2023/01/19 07:07:02;;;;;;;23.53;15.67;;;;;;;;;;5033614;28;20181;-75
2023/01/19 07:09:28;;;;;;;23.05;17.35;;;;;;;;;;5033278;28;20413;-75
2023/01/19 07:11:55;;;;;;;21.70;16.85;;;;;;;;;;5030031;28;20515;-76
2023/01/19 07:14:21;;;;;;;19.23;15.20;;;;;;;;;;5034482;28;20182;-75
2023/01/19 07:16:47;;;;;;;23.33;15.03;;;;;;;;;;5032923;28;20185;-75
2023/01/19 07:19:14;;;;;;;23.73;15.90;;;;;;;;;;5031955;28;20179;-75
2023/01/19 07:21:40;;;;;;;22.00;16.03;;;;;;;;;;5034959;28;20329;-75
2023/01/19 07:24:06;;;;;;;27.23;16.73;;;;;;;;;;5035487;28;20197;-75
2023/01/19 07:26:32;;;;;;;23.70;15.73;;;;;;;;;;5033428;28;20186;-75
2023/01/19 07:28:58;;;;;;;24.70;16.00;;;;;;;;;;5035530;28;20204;-75
2023/01/19 07:31:24;;;;;;;23.77;15.73;;;;;;;;;;5034771;28;20178;-75
2023/01/19 07:33:50;;;;;;;24.73;17.33;;;;;;;;;;5031242;28;20206;-75
2023/01/19 07:36:17;;;;;;;24.13;16.57;;;;;;;;;;5029154;28;20366;-75
2023/01/19 07:38:43;;;;;;;23.63;16.40;;;;;;;;;;5031345;28;20178;-75
2023/01/19 07:41:09;;;;;;;23.87;15.90;;;;;;;;;;5031553;28;20183;-75
2023/01/19 07:43:36;;;;;;;23.53;15.70;;;;;;;;;;5034283;28;20267;-82
2023/01/19 07:46:04;;;;;;;23.23;14.87;;;;;;;;;;5036059;28;20225;-77
2023/01/19 07:48:30;;;;;;;25.30;15.63;;;;;;;;;;5049816;28;20272;-77
2023/01/19 07:51:00;;;;;;;22.77;15.33;;;;;;;;;;5042407;28;20178;-76
2023/01/19 07:53:27;;;;;;;26.60;15.13;;;;;;;;;;5044372;28;20231;-76
2023/01/19 07:55:56;;;;;;;21.33;14.47;;;;;;;;;;5042085;28;20661;-77
2023/01/19 07:58:23;;;;;;;24.67;15.33;;;;;;;;;;5047061;28;20188;-77
2023/01/19 08:00:49;;;;;;;20.73;14.73;;;;;;;;;;5041157;28;20238;-76
2023/01/19 08:03:16;;;;;;;21.40;14.50;;;;;;;;;;5037924;28;20249;-76
2023/01/19 08:05:42;;;;;;;18.00;13.10;;;;;;;;;;5045077;28;20182;-77
2023/01/19 08:08:10;;;;;;;19.73;13.87;;;;;;;;;;5035061;28;20190;-77
2023/01/19 08:10:36;;;;;;;23.00;14.83;;;;;;;;;;5042133;28;20185;-76
2023/01/19 08:13:02;;;;;;;20.13;14.70;;;;;;;;;;5044060;28;20614;-77
2023/01/19 08:15:28;;;;;;;20.03;13.93;;;;;;;;;;5043608;28;20644;-76
2023/01/19 08:17:58;;;;;;;19.60;13.83;;;;;;;;;;5039858;28;20202;-76
2023/01/19 08:20:26;;;;;;;19.67;14.20;;;;;;;;;;5042304;28;20742;-77
2023/01/19 08:22:58;;;;;;;22.30;14.73;;;;;;;;;;5040474;28;20606;-77
2023/01/19 08:25:39;;;;;;;23.43;15.33;;;;;;;;;;5036413;28;20190;-77
2023/01/19 08:28:06;;;;;;;22.37;14.70;;;;;;;;;;5045986;28;20209;-77
2023/01/19 08:30:33;;;;;;;20.77;14.30;;;;;;;;;;5044534;28;20182;-77
2023/01/19 08:33:02;;;;;;;21.27;14.07;;;;;;;;;;5035925;28;20253;-77
2023/01/19 08:35:36;;;;;;;21.70;14.70;;;;;;;;;;5046134;28;20193;-76
2023/01/19 08:38:02;;;;;;;19.47;13.13;;;;;;;;;;5036472;28;20183;-76
2023/01/19 08:40:30;;;;;;;21.63;14.43;;;;;;;;;;5033974;28;20360;-76
2023/01/19 08:43:03;;;;;;;19.50;14.17;;;;;;;;;;5042965;28;20215;-76
2023/01/19 08:45:30;;;;;;;21.30;14.70;;;;;;;;;;5045379;28;20261;-76
2023/01/19 08:47:59;;;;;;;24.67;14.83;;;;;;;;;;5034332;28;20516;-76
2023/01/19 08:50:30;;;;;;;19.83;14.13;;;;;;;;;;5055856;28;20230;-76
2023/01/19 08:52:57;;;;;;;19.00;14.30;;;;;;;;;;5043960;28;20210;-76
2023/01/19 08:55:24;;;;;;;22.00;15.03;;;;;;;;;;5045305;28;20186;-77
2023/01/19 08:57:51;;;;;;;26.87;15.60;;;;;;;;;;5042166;28;20185;-77
2023/01/19 09:00:18;;;;;;;20.43;14.23;;;;;;;;;;5047843;28;20177;-77
2023/01/19 09:02:44;;;;;;;21.63;14.93;;;;;;;;;;5048266;28;20217;-76
2023/01/19 09:05:10;;;;;;;22.80;14.60;;;;;;;;;;5035993;28;20376;-77
2023/01/19 09:07:36;;;;;;;22.20;14.97;;;;;;;;;;5032836;28;20751;-76
2023/01/19 09:10:05;;;;;;;20.80;13.77;;;;;;;;;;5045238;28;20183;-76
2023/01/19 09:12:31;;;;;;;23.40;13.93;;;;;;;;;;5037686;28;20206;-76
2023/01/19 09:14:58;;;;;;;18.93;13.87;;;;;;;;;;5042079;28;20770;-79
2023/01/19 09:17:24;;;;;;;21.30;14.30;;;;;;;;;;5040268;28;20674;-77
2023/01/19 09:19:50;;;;;;;21.97;14.53;;;;;;;;;;5024499;28;20190;-76
2023/01/19 09:22:16;;;;;;;20.03;14.13;;;;;;;;;;5039769;28;20573;-77
2023/01/19 09:24:43;;;;;;;20.70;14.10;;;;;;;;;;5038901;28;20183;-76
2023/01/19 09:27:09;;;;;;;20.70;14.77;;;;;;;;;;5036409;28;20883;-76
2023/01/19 09:29:35;;;;;;;19.97;14.43;;;;;;;;;;5040344;28;20220;-78
2023/01/19 09:32:01;;;;;;;20.70;14.23;;;;;;;;;;5039894;28;20188;-77
2023/01/19 09:34:28;;;;;;;20.17;13.60;;;;;;;;;;5042075;28;20256;-79
2023/01/19 09:36:54;;;;;;;20.40;13.57;;;;;;;;;;5038329;28;20232;-78
2023/01/19 09:39:20;;;;;;;21.33;14.73;;;;;;;;;;5036491;28;20189;-78
2023/01/19 09:41:48;;;;;;;18.90;13.67;;;;;;;;;;5037394;28;20209;-78
2023/01/19 09:44:28;;;;;;;17.30;13.13;;;;;;;;;;5040368;28;20566;-78
2023/01/19 09:46:54;;;;;;;20.17;14.53;;;;;;;;;;5048284;28;20182;-77
2023/01/19 09:49:27;;;;;;;18.27;13.17;;;;;;;;;;5037641;28;20548;-77
2023/01/19 09:51:54;;;;;;;18.23;13.13;;;;;;;;;;5037897;28;20190;-77
2023/01/19 09:54:34;;;;;;;19.33;13.73;;;;;;;;;;5036493;28;20620;-78
2023/01/19 09:57:01;;;;;;;20.67;13.57;;;;;;;;;;5037050;28;20281;-78
2023/01/19 09:59:31;;;;;;;22.73;14.30;;;;;;;;;;5034587;28;20282;-78
2023/01/19 10:01:57;;;;;;;18.83;13.57;;;;;;;;;;5040861;28;20210;-77
2023/01/19 10:04:26;;;;;;;22.27;13.33;;;;;;;;;;5036367;28;20175;-77
2023/01/19 10:06:56;;;;;;;19.27;13.70;;;;;;;;;;5035018;28;20184;-77
2023/01/19 10:09:28;;;;;;;18.57;13.20;;;;;;;;;;5034790;28;20224;-78
2023/01/19 10:12:00;;;;;;;21.00;14.57;;;;;;;;;;5032472;28;20215;-77
2023/01/19 10:14:39;;;;;;;20.43;13.53;;;;;;;;;;5032513;28;20185;-77
2023/01/19 10:17:05;;;;;;;20.87;14.20;;;;;;;;;;5034708;28;20601;-77
2023/01/19 10:19:41;;;;;;;19.93;13.50;;;;;;;;;;5033818;28;20186;-78
2023/01/19 10:22:18;;;;;;;19.77;13.43;;;;;;;;;;5058573;28;20739;-77
2023/01/19 10:24:45;;;;;;;19.07;13.50;;;;;;;;;;5035022;28;20193;-77
2023/01/19 10:27:18;;;;;;;19.57;13.53;;;;;;;;;;5032654;28;20190;-78
2023/01/19 10:29:45;;;;;;;21.00;14.67;;;;;;;;;;5035925;28;20188;-78
2023/01/19 10:32:16;;;;;;;21.33;14.27;;;;;;;;;;5035051;28;20218;-78
2023/01/19 10:34:43;;;;;;;19.73;13.97;;;;;;;;;;5036248;28;20233;-77
2023/01/19 10:37:16;;;;;;;19.30;13.70;;;;;;;;;;5035327;28;20182;-78
2023/01/19 10:39:47;;;;;;;21.23;13.67;;;;;;;;;;5051030;28;20930;-77
2023/01/19 10:42:15;;;;;;;23.40;14.80;;;;;;;;;;5032906;28;20672;-77
2023/01/19 10:44:44;;;;;;;21.10;14.57;;;;;;;;;;5036246;28;20178;-78
2023/01/19 10:47:15;;;;;;;21.27;14.30;;;;;;;;;;5034356;28;20186;-78
2023/01/19 10:49:42;;;;;;;19.30;14.20;;;;;;;;;;5035437;28;20185;-77
2023/01/19 10:52:19;;;;;;;19.87;13.70;;;;;;;;;;5034828;28;20210;-78
2023/01/19 10:54:47;;;;;;;19.37;13.13;;;;;;;;;;5035648;28;20235;-78
2023/01/19 10:57:19;;;;;;;19.43;13.73;;;;;;;;;;5033530;28;20181;-78
2023/01/19 10:59:50;;;;;;;19.33;13.77;;;;;;;;;;5030683;28;20303;-78
2023/01/19 11:02:26;;;;;;;20.27;13.40;;;;;;;;;;5033935;28;20197;-77
2023/01/19 11:04:54;;;;;;;18.67;13.70;;;;;;;;;;5033013;28;20197;-77
2023/01/19 11:07:20;;;;;;;17.83;13.23;;;;;;;;;;5038127;28;20664;-77
2023/01/19 11:09:47;;;;;;;19.43;13.80;;;;;;;;;;5038699;28;20231;-79
2023/01/19 11:12:18;;;;;;;20.27;14.47;;;;;;;;;;5058679;28;20185;-78
2023/01/19 11:14:44;;;;;;;17.63;12.83;;;;;;;;;;5054099;28;20733;-78
2023/01/19 11:17:17;;;;;;;19.00;13.53;;;;;;;;;;5040132;28;20245;-79
2023/01/19 11:19:52;;;;;;;21.50;14.23;;;;;;;;;;5040612;28;20181;-77
2023/01/19 11:22:21;;;;;;;19.80;13.53;;;;;;;;;;5041094;28;20414;-78
2023/01/19 11:24:48;;;;;;;18.97;13.60;;;;;;;;;;5041784;28;20254;-75
2023/01/19 11:27:19;;;;;;;18.43;13.00;;;;;;;;;;5036375;28;20194;-78
2023/01/19 11:29:50;;;;;;;21.20;14.07;;;;;;;;;;5033568;28;20229;-79
2023/01/19 11:32:21;;;;;;;18.67;13.40;;;;;;;;;;5034971;28;20193;-78
2023/01/19 11:34:47;;;;;;;21.37;13.20;;;;;;;;;;5037059;28;20529;-80
2023/01/19 11:37:13;;;;;;;20.43;13.70;;;;;;;;;;5039048;28;20231;-75
2023/01/19 11:39:47;;;;;;;18.87;14.13;;;;;;;;;;5042001;28;20541;-77
2023/01/19 11:42:14;;;;;;;19.67;13.20;;;;;;;;;;5039117;28;20209;-78
2023/01/19 11:44:47;;;;;;;19.13;13.43;;;;;;;;;;5041172;28;20202;-79
2023/01/19 11:47:18;;;;;;;20.20;13.80;;;;;;;;;;5039366;28;20173;-76
2023/01/19 11:49:44;;;;;;;19.70;13.87;;;;;;;;;;5042744;28;20193;-77
2023/01/19 11:52:15;;;;;;;21.77;13.00;;;;;;;;;;5015625;28;20194;-78
2023/01/19 11:54:45;;;;;;;22.83;14.10;;;;;;;;;;5044335;28;20182;-76
2023/01/19 11:57:19;;;;;;;16.40;12.90;;;;;;;;;;5045746;28;20186;-78
2023/01/19 11:59:45;;;;;;;20.87;14.77;;;;;;;;;;5043868;28;20185;-78
2023/01/19 12:02:32;;;;;;;17.00;12.70;;;;;;;;;;5026496;28;20208;-78
2023/01/19 12:05:00;;;;;;;18.53;12.57;;;;;;;;;;5027229;28;20181;-77
2023/01/19 12:07:29;;;;;;;18.60;13.00;;;;;;;;;;5040743;28;20664;-77
2023/01/19 12:10:06;;;;;;;25.03;17.87;;;;;;;;;;5037907;28;20239;-75
2023/01/19 12:12:35;;;;;;;20.10;14.27;;;;;;;;;;5035733;28;20205;-77
2023/01/19 12:15:01;;;;;;;19.33;13.77;;;;;;;;;;5035337;28;20231;-76
2023/01/19 12:17:30;;;;;;;16.77;12.77;;;;;;;;;;5043556;28;20190;-74
2023/01/19 12:20:03;;;;;;;16.70;12.80;;;;;;;;;;5041875;28;20400;-75
2023/01/19 12:22:34;;;;;;;20.13;14.13;;;;;;;;;;5038506;28;20247;-75
2023/01/19 12:25:03;;;;;;;19.80;13.77;;;;;;;;;;5046089;28;20776;-75
2023/01/19 12:27:40;;;;;;;19.80;12.50;;;;;;;;;;5043480;28;20276;-77
2023/01/19 12:30:26;;;;;;;18.57;13.20;;;;;;;;;;5044429;28;20719;-75
2023/01/19 12:33:12;;;;;;;19.20;12.47;;;;;;;;;;5041583;28;20230;-75
2023/01/19 12:35:59;;;;;;;16.70;12.53;;;;;;;;;;5042490;28;20296;-73
2023/01/19 12:38:37;;;;;;;19.27;13.07;;;;;;;;;;5042480;28;20252;-75
2023/01/19 12:41:27;;;;;;;16.83;12.23;;;;;;;;;;5038884;28;20212;-75
2023/01/19 12:44:12;;;;;;;17.20;12.80;;;;;;;;;;5052867;28;20735;-75
2023/01/19 12:46:42;;;;;;;19.23;13.40;;;;;;;;;;5045740;28;20204;-75
2023/01/19 12:49:14;;;;;;;19.60;12.77;;;;;;;;;;5046204;28;20445;-77
2023/01/19 12:51:40;;;;;;;17.93;12.13;;;;;;;;;;5042085;28;20692;-74
2023/01/19 12:54:08;;;;;;;17.17;12.83;;;;;;;;;;5044647;28;20300;-73
2023/01/19 12:56:36;;;;;;;19.10;13.17;;;;;;;;;;5048343;28;20587;-75
2023/01/19 12:59:03;;;;;;;20.27;12.67;;;;;;;;;;5046325;28;20217;-73
2023/01/19 13:01:29;;;;;;;19.70;13.23;;;;;;;;;;5038451;28;20265;-74
2023/01/19 13:04:06;;;;;;;20.37;13.37;;;;;;;;;;5047386;28;20233;-78
2023/01/19 13:06:47;;;;;;;18.93;12.93;;;;;;;;;;5045982;28;20782;-74
2023/01/19 13:09:28;;;;;;;18.77;13.43;;;;;;;;;;5044654;28;20186;-75
2023/01/19 13:12:13;;;;;;;17.33;12.33;;;;;;;;;;5042842;28;20173;-76
2023/01/19 13:14:40;;;;;;;19.07;13.30;;;;;;;;;;5047629;28;20186;-72
2023/01/19 13:17:18;;;;;;;18.93;12.97;;;;;;;;;;5036311;28;20609;-75
2023/01/19 13:19:51;;;;;;;16.07;12.27;;;;;;;;;;5044712;28;20186;-75
2023/01/19 13:22:36;;;;;;;17.67;12.17;;;;;;;;;;5046607;28;20214;-76
2023/01/19 13:25:07;;;;;;;16.63;12.00;;;;;;;;;;5046370;28;20615;-73
2023/01/19 13:27:34;;;;;;;15.07;11.37;;;;;;;;;;5047641;28;20181;-77
2023/01/19 13:30:00;;;;;;;18.90;12.77;;;;;;;;;;5047315;28;20272;-77
2023/01/19 13:32:28;;;;;;;17.10;12.10;;;;;;;;;;5046830;28;20222;-76
2023/01/19 13:34:57;;;;;;;19.43;12.47;;;;;;;;;;5050586;28;20239;-78
2023/01/19 13:37:25;;;;;;;16.37;11.27;;;;;;;;;;5045294;28;20308;-77
2023/01/19 13:39:53;;;;;;;16.07;11.03;;;;;;;;;;5021747;28;20186;-76
2023/01/19 13:42:30;;;;;;;12.60;10.77;;;;;;;;;;5043943;28;20264;-78
2023/01/19 13:44:58;;;;;;;16.97;11.50;;;;;;;;;;5015366;28;20186;-77
2023/01/19 13:47:31;;;;;;;16.50;11.13;;;;;;;;;;5038571;28;20175;-77
2023/01/19 13:49:58;;;;;;;17.03;11.40;;;;;;;;;;5037925;28;20181;-75
2023/01/19 13:52:26;;;;;;;14.43;11.00;;;;;;;;;;5028144;28;20296;-76
2023/01/19 13:54:54;;;;;;;16.80;10.97;;;;;;;;;;5032650;28;20205;-78
2023/01/19 13:57:30;;;;;;;15.20;11.63;;;;;;;;;;5034947;28;20201;-75
2023/01/19 14:00:13;;;;;;;18.77;12.10;;;;;;;;;;5035570;28;20197;-76
2023/01/19 14:02:58;;;;;;;19.83;11.27;;;;;;;;;;5035846;28;20268;-76
2023/01/19 14:05:26;;;;;;;15.73;10.70;;;;;;;;;;5037777;28;20238;-76
2023/01/19 14:08:02;;;;;;;14.00;11.03;;;;;;;;;;5039405;28;20650;-76
2023/01/19 14:10:30;;;;;;;15.13;10.63;;;;;;;;;;5044728;28;20189;-79
2023/01/19 14:13:12;;;;;;;12.97;10.07;;;;;;;;;;5046443;28;20241;-77
2023/01/19 14:15:39;;;;;;;15.33;10.67;;;;;;;;;;5044780;28;20209;-76
2023/01/19 14:18:25;;;;;;;14.20;10.40;;;;;;;;;;5041482;28;20198;-78
2023/01/19 14:20:52;;;;;;;14.67;11.27;;;;;;;;;;5041397;28;20228;-76
2023/01/19 14:23:37;;;;;;;14.13;10.70;;;;;;;;;;5035679;28;20291;-75
2023/01/19 14:26:04;;;;;;;14.30;9.60;;;;;;;;;;5041570;28;20189;-78
2023/01/19 14:28:30;;;;;;;13.50;9.67;;;;;;;;;;5038073;28;20193;-76
2023/01/19 14:31:00;;;;;;;13.37;9.20;;;;;;;;;;5043508;28;20566;-76
2023/01/19 14:33:52;;;;;;;13.73;9.63;;;;;;;;;;5049280;28;20214;-76
2023/01/19 14:36:25;;;;;;;14.17;9.70;;;;;;;;;;5036231;28;20190;-75
2023/01/19 14:38:52;;;;;;;14.70;10.07;;;;;;;;;;5048959;28;20189;-75